Time;durP1;ratioP1;P1;durP2;ratioP2;P2;SDS_P1;SDS_P2;PMS_P1;PMS_P2;Temp;Humidity;BMP_temperature;BMP_pressure;BME280_temperature;BME280_humidity;BME280_pressure;Samples;Min_cycle;Max_cycle;Signal;HPM_P1;HPM_P2
2022/05/22 00:02:12;;;;;;;11.63;5.57;;;;;;;19.48;83.01;97072.56;5090219;28;20130;-85
2022/05/22 00:04:38;;;;;;;9.77;5.60;;;;;;;19.39;83.13;97061.81;5090094;28;20024;-85
2022/05/22 00:07:05;;;;;;;9.63;5.00;;;;;;;19.46;83.93;97079.19;5089947;28;20507;-85
2022/05/22 00:09:32;;;;;;;9.90;4.93;;;;;;;19.40;84.36;97074.41;5090476;28;20043;-85
2022/05/22 00:11:58;;;;;;;8.07;5.50;;;;;;;19.43;84.56;97071.38;5090427;28;20020;-85
2022/05/22 00:14:25;;;;;;;9.32;5.40;;;;;;;19.46;84.17;97071.91;5073195;28;20040;-85
2022/05/22 00:16:51;;;;;;;15.10;5.68;;;;;;;19.50;84.77;97082.44;5090197;28;20023;-85
2022/05/22 00:19:22;;;;;;;14.38;5.50;;;;;;;19.39;85.91;97078.09;5090365;28;20035;-85
2022/05/22 00:21:48;;;;;;;16.90;5.93;;;;;;;19.31;87.49;97076.19;5090166;28;20410;-85
2022/05/22 00:24:16;;;;;;;11.45;5.32;;;;;;;19.27;88.32;97073.94;5090228;28;20060;-85
2022/05/22 00:26:42;;;;;;;12.02;5.50;;;;;;;19.29;88.13;97061.06;5090108;28;20101;-85
2022/05/22 00:29:07;;;;;;;12.77;5.97;;;;;;;19.29;88.64;97070.06;5090435;28;20028;-85
2022/05/22 00:31:33;;;;;;;11.35;6.00;;;;;;;19.27;89.84;97068.53;5089915;28;20063;-85
2022/05/22 00:33:59;;;;;;;7.07;5.60;;;;;;;19.21;90.04;97063.75;5089908;28;20122;-85
2022/05/22 00:36:25;;;;;;;12.05;5.65;;;;;;;19.24;90.47;97076.97;5072944;28;20054;-85
2022/05/22 00:38:51;;;;;;;8.57;5.32;;;;;;;19.11;91.42;97069.25;5089848;28;20081;-85
2022/05/22 00:41:17;;;;;;;9.90;5.40;;;;;;;19.21;90.39;97077.28;5089826;28;20032;-85
2022/05/22 00:43:47;;;;;;;11.85;5.43;;;;;;;19.20;91.12;97078.28;5090009;28;20034;-85
2022/05/22 00:46:15;;;;;;;12.38;5.40;;;;;;;19.21;92.12;97086.28;5089587;28;20027;-84
2022/05/22 00:48:43;;;;;;;8.73;5.20;;;;;;;19.18;93.09;97072.19;5089880;28;20115;-86
2022/05/22 00:51:18;;;;;;;7.70;5.10;;;;;;;19.10;93.24;97074.88;5107599;28;20028;-85
2022/05/22 00:54:08;;;;;;;10.05;5.90;;;;;;;19.11;94.08;97063.00;5089865;28;20491;-85
2022/05/22 00:56:38;;;;;;;14.20;5.60;;;;;;;19.11;93.82;97071.97;5073198;28;20035;-85
2022/05/22 00:59:11;;;;;;;7.88;5.25;;;;;;;19.04;95.30;97064.66;5089510;28;20031;-85
2022/05/22 01:01:37;;;;;;;12.23;5.47;;;;;;;19.03;94.80;97062.94;5089849;28;20024;-85
2022/05/22 01:04:05;;;;;;;9.32;5.68;;;;;;;19.07;95.07;97072.47;5089703;28;20085;-85
2022/05/22 01:06:31;;;;;;;9.07;5.20;;;;;;;19.00;95.12;97058.69;5072719;28;20036;-86
2022/05/22 01:08:57;;;;;;;13.60;6.25;;;;;;;19.07;94.58;97067.03;5089759;28;20020;-85
2022/05/22 01:11:31;;;;;;;9.73;5.30;;;;;;;19.17;94.12;97075.91;5092310;28;20031;-84
2022/05/22 01:14:01;;;;;;;9.93;5.70;;;;;;;19.19;95.16;97076.63;5076593;28;20024;-85
2022/05/22 01:16:27;;;;;;;10.88;5.10;;;;;;;19.17;94.98;97073.19;5076425;28;20058;-85
2022/05/22 01:18:54;;;;;;;13.18;5.10;;;;;;;19.06;95.53;97070.75;5093433;28;20027;-85
2022/05/22 01:21:23;;;;;;;8.52;5.50;;;;;;;19.12;95.73;97068.25;5093507;28;20038;-85
2022/05/22 01:23:50;;;;;;;7.80;5.43;;;;;;;19.16;95.34;97056.09;5093578;28;20561;-86
2022/05/22 01:26:16;;;;;;;11.00;5.85;;;;;;;19.09;95.08;97054.16;5076753;28;20185;-85
2022/05/22 01:28:42;;;;;;;12.05;5.85;;;;;;;19.15;96.00;97072.50;5076373;28;20054;-85
2022/05/22 01:31:08;;;;;;;18.65;5.50;;;;;;;19.10;96.12;97066.72;5093329;28;20461;-85
2022/05/22 01:33:34;;;;;;;9.85;5.55;;;;;;;19.15;95.24;97067.09;5093375;28;20051;-86
2022/05/22 01:36:01;;;;;;;8.68;5.40;;;;;;;19.14;94.38;97059.97;5076367;28;20024;-85
2022/05/22 01:38:27;;;;;;;10.60;5.65;;;;;;;19.20;93.74;97062.88;5093102;28;20043;-85
2022/05/22 01:40:52;;;;;;;10.63;5.47;;;;;;;19.18;94.16;97064.91;5075398;28;20024;-77
2022/05/22 01:43:18;;;;;;;7.95;5.20;;;;;;;19.19;94.78;97066.63;5092206;28;20089;-77
2022/05/22 01:45:43;;;;;;;11.77;5.70;;;;;;;19.17;95.65;97063.19;5075423;28;20111;-77
2022/05/22 01:48:12;;;;;;;9.52;5.32;;;;;;;19.26;94.44;97064.09;5092201;28;20608;-78
2022/05/22 01:50:39;;;;;;;11.02;5.35;;;;;;;19.28;93.89;97065.66;5092111;28;20458;-77
2022/05/22 01:53:06;;;;;;;11.77;5.78;;;;;;;19.24;94.33;97074.25;5091952;28;20587;-76
2022/05/22 01:55:32;;;;;;;8.00;5.57;;;;;;;19.30;94.49;97076.34;5091986;28;20541;-77
2022/05/22 01:57:58;;;;;;;11.15;5.47;;;;;;;19.25;95.35;97073.25;5091829;28;20399;-76
2022/05/22 02:00:25;;;;;;;10.07;5.75;;;;;;;19.28;95.20;97081.06;5092163;28;20039;-76
2022/05/22 02:02:54;;;;;;;11.02;5.40;;;;;;;19.32;94.13;97077.88;5091663;28;20042;-76
2022/05/22 02:05:19;;;;;;;8.55;6.03;;;;;;;19.35;93.43;97068.56;5091473;28;20052;-76
2022/05/22 02:10:31;;;;;;;10.45;5.30;;;;;;;19.37;92.39;97074.69;5092128;28;20027;-76
2022/05/22 02:12:57;;;;;;;10.57;6.25;;;;;;;19.37;92.43;97069.25;5091538;28;20103;-76
2022/05/22 02:15:23;;;;;;;9.30;6.50;;;;;;;19.31;92.94;97081.63;5092002;28;20042;-76
2022/05/22 02:17:49;;;;;;;7.85;5.90;;;;;;;19.30;92.24;97068.19;5091662;28;20472;-76
2022/05/22 02:20:16;;;;;;;9.25;5.53;;;;;;;19.37;91.61;97077.41;5074307;28;20019;-77
2022/05/22 02:22:47;;;;;;;10.73;6.10;;;;;;;19.31;92.90;97080.75;5074130;28;20023;-77
2022/05/22 02:25:15;;;;;;;8.00;5.22;;;;;;;19.27;93.28;97074.81;5091203;28;20032;-77
2022/05/22 02:27:41;;;;;;;11.32;6.47;;;;;;;19.21;94.39;97075.44;5091280;28;20028;-76
2022/05/22 02:30:08;;;;;;;8.63;5.50;;;;;;;19.22;94.23;97082.56;5090964;28;20035;-77
2022/05/22 02:32:36;;;;;;;11.93;6.55;;;;;;;19.20;94.02;97081.00;5091269;28;20023;-77
2022/05/22 02:35:04;;;;;;;19.80;5.65;;;;;;;19.17;94.24;97081.31;5091088;28;20042;-77
2022/05/22 02:37:30;;;;;;;11.90;5.72;;;;;;;19.20;94.01;97072.88;5074312;28;20112;-77
2022/05/22 02:39:58;;;;;;;14.50;6.22;;;;;;;19.23;95.26;97091.53;5090899;28;20078;-78
2022/05/22 02:42:23;;;;;;;11.77;6.00;;;;;;;19.14;95.29;97078.94;5090962;28;20031;-77
2022/05/22 02:44:49;;;;;;;9.50;6.32;;;;;;;19.19;94.62;97093.75;5091088;28;20103;-77
2022/05/22 02:47:14;;;;;;;10.07;5.88;;;;;;;19.18;93.22;97077.63;5073839;28;20035;-78
2022/05/22 02:49:40;;;;;;;9.30;6.22;;;;;;;19.21;91.83;97086.28;5091091;28;20085;-76
2022/05/22 02:52:06;;;;;;;8.90;5.85;;;;;;;19.22;90.79;97077.16;5073837;28;20041;-76
2022/05/22 02:54:31;;;;;;;9.27;5.53;;;;;;;19.20;90.51;97084.56;5073987;28;20051;-77
2022/05/22 02:56:57;;;;;;;11.18;5.88;;;;;;;19.27;90.56;97087.50;5107894;28;20134;-75
2022/05/22 02:59:22;;;;;;;10.77;6.18;;;;;;;19.28;91.08;97090.06;5090514;28;20041;-75
2022/05/22 03:01:48;;;;;;;16.08;5.80;;;;;;;19.31;91.38;97097.03;5090676;28;20470;-76
2022/05/22 03:04:14;;;;;;;12.65;6.10;;;;;;;19.43;91.51;97101.22;5090222;28;20491;-76
2022/05/22 03:06:39;;;;;;;18.80;5.57;;;;;;;19.40;90.73;97090.69;5090508;28;20475;-76
2022/05/22 03:09:07;;;;;;;14.18;6.10;;;;;;;19.46;88.87;97081.88;5090366;28;20032;-76
2022/05/22 03:11:32;;;;;;;10.75;5.60;;;;;;;19.44;87.31;97097.50;5073622;28;20093;-76
2022/05/22 03:13:59;;;;;;;7.43;5.53;;;;;;;19.50;87.35;97096.00;5090524;28;20032;-76
2022/05/22 03:16:24;;;;;;;12.82;5.47;;;;;;;19.48;87.02;97098.84;5090263;28;20096;-77
2022/05/22 03:18:50;;;;;;;11.75;5.90;;;;;;;19.46;86.30;97101.75;5090486;28;20440;-76
2022/05/22 03:21:15;;;;;;;14.25;5.50;;;;;;;19.43;85.47;97077.66;5089981;28;20490;-77
2022/05/22 03:23:41;;;;;;;11.82;5.78;;;;;;;19.56;83.92;97096.19;5090246;28;20475;-76
2022/05/22 03:26:09;;;;;;;13.95;5.10;;;;;;;19.54;84.49;97091.91;5073245;28;20043;-76
2022/05/22 03:28:35;;;;;;;7.60;4.90;;;;;;;19.57;83.93;97095.16;5090076;28;20050;-76
2022/05/22 03:31:01;;;;;;;17.00;4.50;;;;;;;19.59;77.77;97098.59;5090226;28;20027;-76
2022/05/22 03:33:27;;;;;;;9.85;4.50;;;;;;;19.65;76.88;97106.09;5089381;28;20032;-76
2022/05/22 03:35:52;;;;;;;16.95;4.47;;;;;;;19.67;76.39;97104.03;5089813;28;20020;-76
2022/05/22 03:38:18;;;;;;;8.63;4.40;;;;;;;19.64;75.83;97109.81;5090209;28;20399;-76
2022/05/22 03:40:45;;;;;;;24.30;5.72;;;;;;;19.71;76.57;97116.28;5089994;28;20487;-79
2022/05/22 03:43:13;;;;;;;10.85;4.80;;;;;;;19.71;76.96;97110.00;5089727;28;20039;-77
2022/05/22 03:45:38;;;;;;;15.95;4.50;;;;;;;19.71;75.11;97105.44;5072982;28;20064;-76
2022/05/22 03:48:04;;;;;;;17.42;5.20;;;;;;;19.77;72.86;97106.63;5089886;28;20071;-77
2022/05/22 03:50:30;;;;;;;5.90;4.07;;;;;;;19.83;71.03;97098.69;5089632;28;20057;-76
2022/05/22 03:52:56;;;;;;;8.48;3.97;;;;;;;19.91;70.13;97106.88;5073171;28;20048;-76
2022/05/22 03:55:22;;;;;;;7.68;4.03;;;;;;;19.94;70.26;97119.25;5073111;28;20032;-76
2022/05/22 03:57:48;;;;;;;10.35;4.28;;;;;;;19.95;69.68;97121.81;5089832;28;20020;-76
2022/05/22 04:00:17;;;;;;;9.48;4.32;;;;;;;20.03;68.16;97127.28;5106731;28;20020;-76
2022/05/22 04:02:43;;;;;;;13.27;4.05;;;;;;;20.04;69.48;97125.41;5088829;28;20028;-76
2022/05/22 04:05:09;;;;;;;11.00;5.20;;;;;;;20.07;71.47;97127.81;5089599;28;20044;-76
2022/05/22 04:07:37;;;;;;;19.67;7.80;;;;;;;20.08;74.04;97139.53;5089406;28;20036;-76
2022/05/22 04:10:03;;;;;;;21.80;8.32;;;;;;;20.18;73.18;97123.94;5106660;28;20024;-76
2022/05/22 04:12:28;;;;;;;31.98;8.32;;;;;;;20.18;73.18;97121.25;5089282;28;20097;-76
2022/05/22 04:14:54;;;;;;;12.50;6.28;;;;;;;20.37;70.97;97134.53;5072676;28;20028;-77
2022/05/22 04:17:20;;;;;;;15.00;7.47;;;;;;;20.17;73.30;97127.66;5089569;28;20118;-76
2022/05/22 04:19:46;;;;;;;12.98;7.03;;;;;;;20.31;72.89;97118.91;5089216;28;20123;-76
2022/05/22 04:22:11;;;;;;;10.82;6.00;;;;;;;20.31;71.12;97124.34;5072960;28;20036;-77
2022/05/22 04:27:21;;;;;;;16.45;5.55;;;;;;;20.43;69.80;97125.72;5089699;28;20465;-77
2022/05/22 04:29:47;;;;;;;12.13;3.85;;;;;;;20.55;66.07;97121.66;5089124;28;20035;-77
2022/05/22 04:32:12;;;;;;;9.75;4.25;;;;;;;20.59;63.99;97127.63;5089435;28;20036;-75
2022/05/22 04:34:38;;;;;;;6.82;2.97;;;;;;;20.62;59.32;97117.28;5089279;28;20081;-75
2022/05/22 04:37:04;;;;;;;10.70;3.17;;;;;;;20.71;59.27;97126.28;5089436;28;20024;-75
2022/05/22 04:39:30;;;;;;;12.63;3.47;;;;;;;20.74;60.73;97144.97;5089322;28;20028;-76
2022/05/22 04:41:55;;;;;;;6.47;3.10;;;;;;;20.76;59.31;97138.38;5088917;28;20050;-76
2022/05/22 04:44:21;;;;;;;3.70;2.70;;;;;;;20.90;59.21;97142.28;5089173;28;20032;-77
2022/05/22 04:46:52;;;;;;;7.40;2.63;;;;;;;21.11;59.49;97142.66;5092457;28;20097;-76
2022/05/22 04:49:18;;;;;;;4.18;2.40;;;;;;;21.08;57.92;97119.38;5093345;28;20028;-76
2022/05/22 04:51:43;;;;;;;7.50;3.15;;;;;;;21.25;58.07;97139.28;5093445;28;20131;-76
2022/05/22 04:54:10;;;;;;;6.30;2.58;;;;;;;21.37;56.84;97145.22;5076179;28;20495;-77
2022/05/22 04:56:36;;;;;;;7.97;2.90;;;;;;;21.41;55.93;97138.41;5092972;28;20389;-76
2022/05/22 04:59:01;;;;;;;7.93;3.40;;;;;;;21.48;54.90;97139.41;5093218;28;20039;-77
2022/05/22 05:01:27;;;;;;;8.63;2.88;;;;;;;21.50;55.96;97123.75;5093157;28;20071;-77
2022/05/22 05:03:53;;;;;;;5.70;3.08;;;;;;;21.70;53.73;97138.66;5076045;28;20061;-83
2022/05/22 05:06:19;;;;;;;7.82;3.50;;;;;;;21.66;54.57;97134.59;5092780;28;20048;-78
2022/05/22 05:08:45;;;;;;;10.32;4.28;;;;;;;21.78;54.16;97144.09;5092866;28;20117;-77
2022/05/22 05:11:11;;;;;;;13.77;4.85;;;;;;;21.59;58.32;97160.84;5075520;28;20468;-78
2022/05/22 05:13:37;;;;;;;12.88;4.65;;;;;;;21.66;56.86;97159.09;5092701;28;20035;-78
2022/05/22 05:16:04;;;;;;;7.45;4.38;;;;;;;21.68;57.29;97176.13;5092406;28;20032;-78
2022/05/22 05:18:30;;;;;;;16.25;5.90;;;;;;;21.67;58.63;97155.34;5075840;28;20024;-77
2022/05/22 05:21:00;;;;;;;13.30;4.20;;;;;;;21.79;61.14;97173.03;5075531;28;20028;-76
2022/05/22 05:23:26;;;;;;;9.02;4.28;;;;;;;21.74;63.90;97180.03;5092637;28;20415;-76
2022/05/22 05:25:52;;;;;;;16.17;4.05;;;;;;;21.61;64.57;97175.09;5091960;28;20020;-77
2022/05/22 05:28:17;;;;;;;5.93;3.80;;;;;;;21.45;65.35;97175.13;5075635;28;20024;-76
2022/05/22 05:30:43;;;;;;;14.10;4.47;;;;;;;21.42;65.19;97168.16;5096698;28;20475;-76
2022/05/22 05:33:09;;;;;;;8.88;3.85;;;;;;;21.66;64.40;97177.34;5075421;28;20028;-76
2022/05/22 05:36:02;;;;;;;17.45;4.55;;;;;;;21.98;63.53;97188.16;5094111;28;20020;-80
2022/05/22 05:38:28;;;;;;;6.20;3.65;;;;;;;22.27;61.94;97179.38;5108937;27;20032;-79
2022/05/22 05:40:59;;;;;;;13.88;3.65;;;;;;;22.45;60.44;97152.72;5096382;28;20035;-79
2022/05/22 05:43:32;;;;;;;9.60;4.43;;;;;;;22.74;56.27;97143.88;5110600;28;20024;-82
2022/05/22 05:46:02;;;;;;;7.93;3.45;;;;;;;22.96;54.33;97141.16;5093938;28;20024;-82
2022/05/22 05:48:27;;;;;;;17.95;7.78;;;;;;;23.00;53.48;97139.78;5092401;28;20017;-79
2022/05/22 05:50:55;;;;;;;6.38;3.55;;;;;;;23.28;53.48;97153.72;5092969;28;20039;-81
2022/05/22 05:53:21;;;;;;;17.98;5.90;;;;;;;23.67;53.36;97167.19;5092331;28;20036;-82
2022/05/22 05:56:11;;;;;;;8.25;2.88;;;;;;;23.93;50.49;97153.97;5093450;28;20035;-85
2022/05/22 05:58:39;;;;;;;8.82;3.60;;;;;;;23.93;50.52;97144.91;5093465;28;20022;-82
2022/05/22 06:01:30;;;;;;;8.63;4.82;;;;;;;23.88;54.50;97185.59;5097595;28;20094;-86
2022/05/22 06:04:06;;;;;;;9.82;4.10;;;;;;;23.69;50.70;97167.84;5101189;28;20101;-79
2022/05/22 06:07:09;;;;;;;7.75;4.10;;;;;;;23.65;54.79;97147.44;5080183;28;20028;-84
2022/05/22 06:09:45;;;;;;;6.80;4.00;;;;;;;23.89;54.17;97182.69;5074448;28;20065;-85
2022/05/22 06:12:31;;;;;;;16.48;6.10;;;;;;;23.66;55.96;97122.66;5082372;28;20036;-83
2022/05/22 06:15:21;;;;;;;11.20;4.35;;;;;;;23.21;56.06;97161.78;5115889;27;20115;-87
2022/05/22 06:18:08;;;;;;;8.35;3.58;;;;;;;23.15;50.61;97113.38;5095778;28;20031;-86
2022/05/22 06:20:34;;;;;;;7.97;3.95;;;;;;;23.26;51.65;97144.03;5095802;28;20115;-84
2022/05/22 06:23:00;;;;;;;9.88;2.45;;;;;;;23.40;48.55;97157.72;5091433;28;20183;-84
2022/05/22 06:25:28;;;;;;;9.88;4.35;;;;;;;23.58;52.18;97177.34;5077542;28;20493;-85
2022/05/22 06:27:57;;;;;;;17.60;4.93;;;;;;;23.54;57.12;97173.28;5112985;28;20024;-89
2022/05/22 06:31:01;;;;;;;25.20;6.53;;;;;;;23.77;51.95;97172.41;5095174;28;20024;-92
2022/05/22 06:33:29;;;;;;;29.42;12.02;;;;;;;23.62;51.97;97158.72;5097877;28;20387;-85
2022/05/22 06:35:56;;;;;;;28.35;7.53;;;;;;;23.68;55.09;97186.16;5107084;27;20101;-87
2022/05/22 06:41:10;;;;;;;50.80;13.85;;;;;;;23.28;56.27;97183.75;5113825;28;20047;-87
2022/05/22 06:47:55;;;;;;;138.70;42.03;;;;;;;22.91;52.61;97159.13;5116602;28;20044;-90
2022/05/22 06:50:23;;;;;;;116.28;40.15;;;;;;;22.72;55.47;97171.34;5102734;28;20036;-88
2022/05/22 06:52:49;;;;;;;28.88;8.43;;;;;;;22.75;50.13;97134.66;5096837;28;20032;-88
2022/05/22 06:55:17;;;;;;;22.02;6.65;;;;;;;22.97;49.30;97147.47;5091092;28;20893;-90
2022/05/22 06:57:43;;;;;;;19.70;3.38;;;;;;;23.01;47.79;97129.72;5093051;28;20114;-88
2022/05/22 07:00:14;;;;;;;41.53;10.02;;;;;;;23.02;50.17;97128.66;5091352;28;20551;-88
2022/05/22 07:02:40;;;;;;;21.70;6.38;;;;;;;23.15;49.15;97148.88;5092311;28;20024;-89
2022/05/22 07:05:15;;;;;;;13.40;4.32;;;;;;;22.89;49.77;97145.66;5093279;28;20533;-88
2022/05/22 07:07:40;;;;;;;15.85;5.18;;;;;;;22.91;51.49;97150.94;5077091;28;20020;-89
2022/05/22 07:10:06;;;;;;;35.05;10.30;;;;;;;22.84;51.44;97142.63;5077773;28;20514;-87
2022/05/22 07:12:32;;;;;;;25.17;7.80;;;;;;;22.78;53.94;97151.53;5094924;28;20039;-88
2022/05/22 07:14:57;;;;;;;37.63;13.65;;;;;;;22.55;54.55;97169.69;5077803;28;20032;-88
2022/05/22 07:17:26;;;;;;;36.72;8.90;;;;;;;22.48;54.21;97152.38;5092898;28;20073;-88
2022/05/22 07:19:55;;;;;;;38.80;11.48;;;;;;;22.73;54.06;97170.31;5095392;28;20055;-89
2022/05/22 07:22:21;;;;;;;108.22;38.05;;;;;;;22.82;53.83;97154.75;5094480;28;20039;-88
2022/05/22 07:28:28;;;;;;;86.13;40.13;;;;;;;22.96;55.55;97157.53;5093610;28;20085;-87
2022/05/22 07:31:57;;;;;;;90.13;37.78;;;;;;;23.25;55.24;97185.97;5101800;28;20227;-88
2022/05/22 07:34:09;;;;;;;229.45;27.73;;;;;;;23.49;51.40;97103.88;5085510;28;20040;-88
2022/05/22 07:36:38;;;;;;;52.50;12.38;;;;;;;23.68;53.24;97130.66;5092006;28;20058;-87
2022/05/22 07:39:05;;;;;;;37.45;10.27;;;;;;;23.97;52.46;97160.72;5092454;28;20031;-88
2022/05/22 07:41:36;;;;;;;35.22;19.67;;;;;;;24.00;52.21;97146.69;5093761;28;20020;-88
2022/05/22 07:44:01;;;;;;;50.00;28.20;;;;;;;24.61;51.03;97161.00;5076659;28;20510;-89
2022/05/22 07:46:27;;;;;;;96.07;59.25;;;;;;;24.64;50.45;97152.41;5091465;28;20031;-88
2022/05/22 07:48:53;;;;;;;13.88;4.85;;;;;;;24.58;49.71;97156.75;5091346;28;20031;-87
2022/05/22 07:51:19;;;;;;;33.28;14.73;;;;;;;24.21;52.03;97152.25;5093258;28;20023;-89
2022/05/22 07:53:45;;;;;;;40.03;25.10;;;;;;;24.07;52.30;97169.50;5096444;28;20111;-90
2022/05/22 07:56:13;;;;;;;29.70;14.30;;;;;;;24.10;53.46;97155.47;5099242;28;20065;-90
2022/05/22 07:58:42;;;;;;;14.02;7.38;;;;;;;24.15;51.27;97139.34;5098156;28;20548;-83
2022/05/22 08:01:07;;;;;;;16.23;8.20;;;;;;;24.17;51.48;97142.78;5096782;28;20054;-90
2022/05/22 08:03:36;;;;;;;21.33;4.35;;;;;;;24.30;48.39;97120.22;5088128;28;20437;-89
2022/05/22 08:06:02;;;;;;;33.22;20.55;;;;;;;24.71;47.03;97106.81;5081214;28;20516;-89
2022/05/22 08:08:28;;;;;;;18.02;6.28;;;;;;;24.81;46.26;97101.91;5095080;28;20067;-90
2022/05/22 08:10:54;;;;;;;23.80;8.93;;;;;;;25.13;46.06;97093.16;5094729;28;20525;-89
2022/05/22 08:13:19;;;;;;;45.20;16.17;;;;;;;25.31;46.93;97109.97;5093435;28;20035;-90
2022/05/22 08:15:45;;;;;;;49.30;21.92;;;;;;;25.40;47.55;97096.13;5093001;28;20035;-89
2022/05/22 08:18:11;;;;;;;20.48;10.32;;;;;;;25.62;44.80;97093.19;5080671;28;20114;-90
2022/05/22 08:20:39;;;;;;;21.25;8.40;;;;;;;25.59;43.68;97085.38;5115336;28;20035;-89
2022/05/22 08:23:12;;;;;;;19.95;7.85;;;;;;;25.52;43.51;97073.50;5113668;28;20034;-90
2022/05/22 08:25:37;;;;;;;17.20;7.47;;;;;;;25.88;43.57;97079.63;5095271;28;20032;-89
2022/05/22 08:28:04;;;;;;;19.58;6.78;;;;;;;26.03;41.94;97065.78;5097545;28;20083;-90
2022/05/22 08:30:30;;;;;;;14.55;5.90;;;;;;;26.02;43.74;97086.06;5096952;28;20460;-90
2022/05/22 08:32:56;;;;;;;17.92;6.10;;;;;;;25.59;44.76;97087.25;5100246;28;20059;-90
2022/05/22 08:35:32;;;;;;;26.90;9.35;;;;;;;25.89;46.22;97096.94;5122607;28;20023;-91
2022/05/22 08:37:59;;;;;;;33.08;7.38;;;;;;;25.91;43.65;97089.34;5120783;28;20031;-91
2022/05/22 08:40:27;;;;;;;12.70;5.93;;;;;;;26.52;41.27;97081.22;5101926;28;20028;-90
2022/05/22 08:43:07;;;;;;;10.57;5.65;;;;;;;26.57;39.33;97067.72;5102844;28;20051;-89
2022/05/22 08:45:41;;;;;;;14.38;5.68;;;;;;;27.61;38.14;97061.53;5100180;28;20036;-92
2022/05/22 08:48:30;;;;;;;16.48;6.68;;;;;;;30.12;37.00;97068.09;5099276;28;20049;-91
2022/05/22 08:50:57;;;;;;;12.50;4.75;;;;;;;31.65;31.92;97037.03;5099281;28;20389;-91
2022/05/22 08:53:35;;;;;;;11.90;5.38;;;;;;;32.71;32.72;97044.94;5097563;28;20487;-92
2022/05/22 08:59:06;;;;;;;13.75;5.30;;;;;;;31.09;32.83;97037.53;5096874;28;20137;-89
2022/05/22 09:01:46;;;;;;;17.23;7.22;;;;;;;30.47;36.34;97055.38;5094505;28;20099;-88
2022/05/22 09:04:21;;;;;;;14.50;7.35;;;;;;;30.61;35.17;97040.31;5070526;28;20635;-89
2022/05/22 09:07:04;;;;;;;14.27;5.65;;;;;;;31.45;33.90;97032.88;5109694;28;20127;-90
2022/05/22 09:09:31;;;;;;;23.30;10.63;;;;;;;31.87;31.82;97022.59;5096304;28;20080;-90
2022/05/22 09:12:15;;;;;;;9.43;3.10;;;;;;;30.69;33.13;97019.81;5078829;28;20039;-90
2022/05/22 09:14:44;;;;;;;6.05;2.80;;;;;;;31.29;31.11;97009.53;5090977;28;20028;-90
2022/05/22 09:17:14;;;;;;;7.10;2.55;;;;;;;31.81;29.54;97001.41;5109886;28;20140;-91
2022/05/22 09:19:43;;;;;;;4.45;2.20;;;;;;;31.41;29.64;97004.88;5091896;28;20055;-90
2022/05/22 09:22:22;;;;;;;10.48;3.00;;;;;;;32.72;28.41;96994.00;5093521;28;20036;-90
2022/05/22 09:24:55;;;;;;;9.43;2.42;;;;;;;33.32;26.91;96985.06;5091029;28;20024;-90
2022/05/22 09:27:40;;;;;;;5.72;1.80;;;;;;;33.70;27.53;96987.09;5091371;28;20047;-90
2022/05/22 09:30:18;;;;;;;7.22;3.13;;;;;;;33.62;27.73;96985.63;5077269;28;20119;-90
2022/05/22 09:33:13;;;;;;;9.63;2.75;;;;;;;32.34;27.14;96959.66;5106267;28;20020;-89
2022/05/22 09:36:16;;;;;;;8.32;2.38;;;;;;;33.65;28.06;96982.34;5083530;28;20445;-89
2022/05/22 09:38:54;;;;;;;8.20;2.72;;;;;;;33.97;27.27;96978.88;5095525;28;20024;-90
2022/05/22 09:41:52;;;;;;;14.80;3.97;;;;;;;35.43;23.40;96947.19;5096480;28;20035;-91
2022/05/22 09:44:39;;;;;;;7.35;3.88;;;;;;;36.40;23.44;96949.41;5089509;28;20499;-90
2022/05/22 09:47:20;;;;;;;6.85;2.47;;;;;;;37.33;23.19;96942.66;5095641;28;20121;-88
2022/05/22 09:49:54;;;;;;;6.57;3.90;;;;;;;37.66;23.52;96944.03;5087814;28;20079;-85
2022/05/22 09:52:24;;;;;;;2.72;1.83;;;;;;;34.88;23.41;96927.22;5090152;28;20449;-85
2022/05/22 09:54:55;;;;;;;3.67;2.72;;;;;;;33.11;26.01;96935.94;5090025;28;20034;-85
2022/05/22 09:57:54;;;;;;;6.72;2.25;;;;;;;33.89;25.40;96932.13;5090020;28;20051;-88
2022/05/22 10:00:30;;;;;;;7.10;1.65;;;;;;;37.39;22.08;96929.53;5090155;28;20514;-85
2022/05/22 10:03:21;;;;;;;3.63;2.20;;;;;;;38.61;19.92;96916.91;5073968;28;20031;-86
2022/05/22 10:06:01;;;;;;;6.05;2.25;;;;;;;36.34;21.91;96920.69;5090894;28;20046;-85
2022/05/22 10:08:27;;;;;;;3.65;2.35;;;;;;;34.38;24.13;96919.16;5089666;28;20476;-85
2022/05/22 10:11:36;;;;;;;5.25;2.60;;;;;;;33.25;24.53;96906.78;5090777;28;20107;-84
2022/05/22 10:14:11;;;;;;;6.63;2.80;;;;;;;33.06;26.32;96914.47;5055278;28;20031;-85
2022/05/22 10:16:47;;;;;;;4.95;2.97;;;;;;;35.40;23.77;96907.91;5071558;28;20038;-85
2022/05/22 10:19:54;;;;;;;8.82;2.50;;;;;;;35.35;23.06;96897.56;5084058;28;20119;-85
2022/05/22 10:22:47;;;;;;;1.67;1.50;;;;;;;33.85;24.38;96892.09;5092531;28;20059;-85
2022/05/22 10:25:19;;;;;;;2.45;2.00;;;;;;;33.23;25.60;96900.63;5106856;28;20028;-85
2022/05/22 10:27:44;;;;;;;;;;;;;;;32.53;24.92;96895.50;5092341;28;20024;-87
2022/05/22 10:30:18;;;;;;;6.38;2.03;;;;;;;32.03;25.39;96887.06;5093298;28;19919;-86
2022/05/22 10:32:45;;;;;;;5.60;2.10;;;;;;;31.67;26.34;96891.00;5105319;28;20548;-85
2022/05/22 10:35:54;;;;;;;8.98;2.22;;;;;;;31.47;26.46;96885.00;5086609;28;20024;-85
2022/05/22 10:38:26;;;;;;;4.28;2.70;;;;;;;31.11;27.10;96885.25;5054313;28;20070;-83
2022/05/22 10:43:40;;;;;;;7.82;1.92;;;;;;;31.81;26.22;96876.91;5089089;28;20070;-83
2022/05/22 10:46:06;;;;;;;3.13;1.90;;;;;;;32.53;25.79;96884.44;5088628;28;20054;-83
2022/05/22 10:48:35;;;;;;;5.10;3.45;;;;;;;32.82;26.22;96887.19;5088809;28;20064;-83
2022/05/22 10:51:09;;;;;;;9.27;2.33;;;;;;;33.02;25.52;96874.50;5105484;28;20042;-83
2022/05/22 10:53:37;;;;;;;4.38;1.63;;;;;;;31.42;27.06;96860.00;5088628;28;20050;-84
2022/05/22 10:56:17;;;;;;;2.63;2.30;;;;;;;29.66;29.96;96878.28;5089824;28;20416;-82
2022/05/22 10:58:57;;;;;;;6.38;1.98;;;;;;;28.61;31.35;96887.56;5089927;28;20024;-81
2022/05/22 11:01:26;;;;;;;4.07;2.10;;;;;;;27.90;34.18;96892.47;5088149;28;20036;-81
2022/05/22 11:04:06;;;;;;;5.82;2.30;;;;;;;27.52;34.71;96897.06;5088381;28;20159;-82
2022/05/22 11:06:35;;;;;;;7.75;2.40;;;;;;;27.87;36.73;96901.16;5087904;28;20424;-82
2022/05/22 11:09:05;;;;;;;5.30;2.78;;;;;;;28.21;35.69;96903.53;5087689;28;20070;-82
2022/05/22 11:11:33;;;;;;;8.98;2.40;;;;;;;27.84;35.22;96899.69;5106884;28;20031;-89
2022/05/22 11:14:10;;;;;;;5.60;1.70;;;;;;;27.68;34.29;96888.34;5090934;28;20063;-87
2022/05/22 11:16:37;;;;;;;4.95;2.40;;;;;;;27.98;35.15;96893.06;5074525;28;20085;-88
2022/05/22 11:19:09;;;;;;;18.90;4.70;;;;;;;28.13;35.17;96891.94;5073585;28;20066;-87
2022/05/22 11:21:37;;;;;;;11.15;2.80;;;;;;;27.90;35.17;96887.78;5091919;28;20023;-84
2022/05/22 11:24:06;;;;;;;4.97;2.28;;;;;;;28.00;35.40;96885.41;5090412;28;20487;-85
2022/05/22 11:26:46;;;;;;;8.88;2.72;;;;;;;28.04;34.70;96876.72;5090637;28;20344;-84
2022/05/22 11:29:20;;;;;;;13.10;2.53;;;;;;;28.02;36.07;96885.22;5089069;28;20032;-83
2022/05/22 11:32:09;;;;;;;4.60;2.35;;;;;;;27.68;35.32;96877.34;5089118;28;20392;-84
2022/05/22 11:35:11;;;;;;;8.27;2.20;;;;;;;27.88;35.07;96875.34;5090090;28;20031;-85
2022/05/22 11:37:53;;;;;;;21.60;3.60;;;;;;;28.13;35.69;96884.53;5088686;28;20513;-84
2022/05/22 11:40:28;;;;;;;6.95;2.25;;;;;;;27.90;35.21;96890.53;5089537;28;20039;-84
2022/05/22 11:43:24;;;;;;;7.13;2.55;;;;;;;28.14;35.30;96883.47;5089897;28;20055;-85
2022/05/22 11:46:18;;;;;;;4.28;2.13;;;;;;;28.20;34.83;96868.84;5091116;28;20024;-85
2022/05/22 11:48:52;;;;;;;9.48;2.35;;;;;;;29.57;31.88;96861.22;5087824;28;21152;-85
2022/05/22 11:51:18;;;;;;;8.10;3.58;;;;;;;30.09;30.60;96850.56;5091804;28;20071;-84
2022/05/22 11:53:58;;;;;;;6.18;1.98;;;;;;;30.43;30.49;96854.53;5091036;28;20032;-87
2022/05/22 11:56:52;;;;;;;4.13;1.80;;;;;;;29.12;31.86;96859.81;5090140;28;20426;-86
2022/05/22 11:59:17;;;;;;;6.93;1.77;;;;;;;29.56;31.48;96851.25;5090749;28;20073;-85
2022/05/22 12:01:56;;;;;;;2.45;1.73;;;;;;;29.75;30.57;96848.50;5090148;28;20028;-83
2022/05/22 12:04:32;;;;;;;3.67;2.20;;;;;;;29.64;30.86;96840.97;5089795;28;20020;-84
2022/05/22 12:07:24;;;;;;;8.93;2.33;;;;;;;29.96;31.11;96843.31;5089476;28;20095;-83
2022/05/22 12:09:56;;;;;;;5.68;1.73;;;;;;;30.48;29.98;96830.66;5090203;28;20119;-86